Time;durP1;ratioP1;P1;durP2;ratioP2;P2;SDS_P1;SDS_P2;PMS_P1;PMS_P2;Temp;Humidity;BMP_temperature;BMP_pressure;BME280_temperature;BME280_humidity;BME280_pressure;Samples;Min_cycle;Max_cycle;Signal;HPM_P1;HPM_P2
2022/03/16 00:01:25;;;;;;;13.75;9.40;;;8.00;77.10;;;;;;5093682;28;20036;-36
2022/03/16 00:03:51;;;;;;;15.63;9.38;;;7.90;77.10;;;;;;5093654;28;20028;-35
2022/03/16 00:06:16;;;;;;;14.15;9.73;;;7.90;77.10;;;;;;5093679;28;20059;-45
2022/03/16 00:08:42;;;;;;;13.60;9.13;;;7.90;77.10;;;;;;5093428;28;20028;-36
2022/03/16 00:11:07;;;;;;;14.45;9.85;;;7.90;77.10;;;;;;5093474;28;20039;-36
2022/03/16 00:13:33;;;;;;;14.68;10.35;;;7.80;77.10;;;;;;5093394;28;20506;-34
2022/03/16 00:15:59;;;;;;;16.67;10.27;;;7.80;77.30;;;;;;5093736;28;20050;-37
2022/03/16 00:18:24;;;;;;;15.18;10.18;;;7.70;77.20;;;;;;5093335;28;20028;-36
2022/03/16 00:20:50;;;;;;;16.55;10.38;;;7.70;77.30;;;;;;5075110;28;20057;-36
2022/03/16 00:23:16;;;;;;;14.63;9.77;;;7.70;77.40;;;;;;5093770;28;20035;-37
2022/03/16 00:25:42;;;;;;;14.25;10.48;;;7.70;77.50;;;;;;5093635;28;20433;-36
2022/03/16 00:28:08;;;;;;;12.60;9.10;;;7.70;77.40;;;;;;5093642;28;20035;-35
2022/03/16 00:30:33;;;;;;;13.65;9.95;;;7.70;77.40;;;;;;5093186;28;20028;-34
2022/03/16 00:32:59;;;;;;;14.75;10.48;;;7.70;77.40;;;;;;5093408;28;20051;-35
2022/03/16 00:35:25;;;;;;;14.32;10.13;;;7.60;77.50;;;;;;5093183;28;20024;-35
2022/03/16 00:37:51;;;;;;;15.02;10.55;;;7.70;77.60;;;;;;5074991;28;20034;-35
2022/03/16 00:40:16;;;;;;;15.35;10.82;;;7.60;77.50;;;;;;5074995;28;20032;-35
2022/03/16 00:42:42;;;;;;;15.73;10.45;;;7.60;77.60;;;;;;5093127;28;20028;-36
2022/03/16 00:45:08;;;;;;;14.13;10.30;;;7.60;77.60;;;;;;5093051;28;20605;-35
2022/03/16 00:47:34;;;;;;;15.93;11.13;;;7.60;77.80;;;;;;5093025;28;20063;-39
2022/03/16 00:49:59;;;;;;;16.20;10.65;;;7.60;77.80;;;;;;5092961;28;20414;-35
2022/03/16 00:52:25;;;;;;;16.83;10.73;;;7.60;77.80;;;;;;5093135;28;20032;-35
2022/03/16 00:54:50;;;;;;;15.52;10.27;;;7.50;77.90;;;;;;5092756;28;20023;-35
2022/03/16 00:57:16;;;;;;;17.42;11.43;;;7.50;78.00;;;;;;5092952;28;20028;-35
2022/03/16 00:59:42;;;;;;;16.75;10.77;;;7.50;78.00;;;;;;5092900;28;20032;-36
2022/03/16 01:02:07;;;;;;;15.20;10.32;;;7.50;78.00;;;;;;5092992;28;20103;-35
2022/03/16 01:04:33;;;;;;;17.45;11.00;;;7.60;78.00;;;;;;5093146;28;20157;-35
2022/03/16 01:06:58;;;;;;;17.02;11.30;;;7.50;78.10;;;;;;5092843;28;20028;-35
2022/03/16 01:09:24;;;;;;;16.77;12.00;;;7.50;78.10;;;;;;5092850;28;20028;-35
2022/03/16 01:11:50;;;;;;;15.45;12.10;;;7.50;78.10;;;;;;5092567;28;20054;-35
2022/03/16 01:14:17;;;;;;;17.48;11.27;;;7.50;78.20;;;;;;5092555;28;20028;-35
2022/03/16 01:16:42;;;;;;;17.95;11.82;;;7.40;78.20;;;;;;5092625;28;20043;-36
2022/03/16 01:19:08;;;;;;;16.58;12.18;;;7.40;78.30;;;;;;5092573;28;20028;-35
2022/03/16 01:21:34;;;;;;;16.70;11.82;;;7.40;78.40;;;;;;5092780;28;20075;-35
2022/03/16 01:24:00;;;;;;;17.77;12.52;;;7.40;78.30;;;;;;5092652;28;20476;-34
2022/03/16 01:26:26;;;;;;;15.73;11.55;;;7.40;78.40;;;;;;5092678;28;20032;-35
2022/03/16 01:28:52;;;;;;;17.27;11.65;;;7.40;78.40;;;;;;5092643;28;20479;-36
2022/03/16 01:31:21;;;;;;;17.23;12.38;;;7.40;78.40;;;;;;5092540;28;20088;-36
2022/03/16 01:33:47;;;;;;;17.83;12.35;;;7.40;78.50;;;;;;5092453;28;20024;-35
2022/03/16 01:36:13;;;;;;;17.20;12.00;;;7.40;78.50;;;;;;5074247;28;20548;-35
2022/03/16 01:38:38;;;;;;;18.35;12.88;;;7.40;78.50;;;;;;5092451;28;20073;-36
2022/03/16 01:41:04;;;;;;;17.92;13.35;;;7.40;78.50;;;;;;5092624;28;20480;-36
2022/03/16 01:43:29;;;;;;;18.25;13.15;;;7.40;78.50;;;;;;5092353;28;20031;-35
2022/03/16 01:45:55;;;;;;;18.40;13.20;;;7.40;78.50;;;;;;5092687;28;20552;-36
2022/03/16 01:48:21;;;;;;;19.20;13.02;;;7.40;78.50;;;;;;5074391;28;20116;-36
2022/03/16 01:50:48;;;;;;;19.13;12.98;;;7.40;78.60;;;;;;5092321;28;20078;-36
2022/03/16 01:53:14;;;;;;;18.48;12.80;;;7.40;78.50;;;;;;5092285;28;20514;-36
2022/03/16 01:55:41;;;;;;;19.90;13.10;;;7.30;78.50;;;;;;5074368;28;20043;-35
2022/03/16 01:58:07;;;;;;;17.27;12.27;;;7.30;78.60;;;;;;5096065;28;20020;-36
2022/03/16 02:00:32;;;;;;;18.48;12.38;;;7.30;78.60;;;;;;5095950;28;20059;-36
2022/03/16 02:02:58;;;;;;;18.27;13.13;;;7.30;78.70;;;;;;5096008;28;20027;-37
2022/03/16 02:05:24;;;;;;;18.17;12.98;;;7.30;78.70;;;;;;5095855;28;20074;-37
2022/03/16 02:07:50;;;;;;;20.65;13.27;;;7.30;78.70;;;;;;5095774;28;20024;-35
2022/03/16 02:10:16;;;;;;;19.17;13.68;;;7.30;78.70;;;;;;5077554;28;20024;-36
2022/03/16 02:12:52;;;;;;;22.30;12.95;;;7.30;78.80;;;;;;5095718;28;20016;-36
2022/03/16 02:15:20;;;;;;;17.33;12.43;;;7.30;78.80;;;;;;5096032;28;20417;-36
2022/03/16 02:17:46;;;;;;;20.80;13.05;;;7.30;78.80;;;;;;5095674;28;20020;-36
2022/03/16 02:20:12;;;;;;;19.15;13.82;;;7.20;78.80;;;;;;5095865;28;20391;-36
2022/03/16 02:22:58;;;;;;;18.73;12.43;;;7.20;78.80;;;;;;5095577;28;20702;-36
2022/03/16 02:25:25;;;;;;;18.90;12.55;;;7.20;78.90;;;;;;5095450;28;20095;-35
2022/03/16 02:27:52;;;;;;;16.33;11.85;;;7.20;78.90;;;;;;5095469;28;20035;-37
2022/03/16 02:30:22;;;;;;;20.73;14.10;;;7.20;79.00;;;;;;5077318;28;20157;-37
2022/03/16 02:32:47;;;;;;;19.02;13.70;;;7.10;79.00;;;;;;5095653;28;20491;-37
2022/03/16 02:35:14;;;;;;;18.35;12.65;;;7.20;79.10;;;;;;5095481;28;20016;-36
2022/03/16 02:37:39;;;;;;;20.48;13.35;;;7.10;79.10;;;;;;5095533;28;20020;-36
2022/03/16 02:40:07;;;;;;;16.98;12.57;;;7.10;79.10;;;;;;5095234;28;20413;-38
2022/03/16 02:42:33;;;;;;;19.42;13.90;;;7.10;79.20;;;;;;5095482;28;20028;-36
2022/03/16 02:44:59;;;;;;;19.90;13.52;;;7.10;79.30;;;;;;5095165;28;20032;-36
2022/03/16 02:47:24;;;;;;;19.00;13.25;;;7.10;79.30;;;;;;5094917;28;20447;-36
2022/03/16 02:49:51;;;;;;;20.88;13.35;;;7.10;79.40;;;;;;5095070;28;20032;-36
2022/03/16 02:52:17;;;;;;;20.90;13.38;;;7.10;79.40;;;;;;5094983;28;20047;-36
2022/03/16 02:54:43;;;;;;;19.65;13.02;;;7.00;79.40;;;;;;5095254;28;20388;-36
2022/03/16 02:57:09;;;;;;;21.70;13.45;;;7.00;79.40;;;;;;5076666;28;20048;-36
2022/03/16 02:59:36;;;;;;;19.83;14.38;;;7.00;79.50;;;;;;5094893;28;20463;-36
2022/03/16 03:02:02;;;;;;;19.67;14.25;;;7.00;79.50;;;;;;5094797;28;20099;-37
2022/03/16 03:04:27;;;;;;;22.75;15.10;;;7.00;79.70;;;;;;5094709;28;20056;-36
2022/03/16 03:06:53;;;;;;;22.35;14.63;;;6.90;79.80;;;;;;5094510;28;20353;-36
2022/03/16 03:09:19;;;;;;;21.55;15.15;;;6.90;79.90;;;;;;5094695;28;20025;-35
2022/03/16 03:11:44;;;;;;;23.45;14.48;;;6.80;80.00;;;;;;5094631;28;20475;-35
2022/03/16 03:14:10;;;;;;;20.50;14.35;;;6.80;80.20;;;;;;5094627;28;20031;-35
2022/03/16 03:16:35;;;;;;;21.92;14.95;;;6.80;80.20;;;;;;5094454;28;20024;-35
2022/03/16 03:19:01;;;;;;;19.73;14.35;;;6.70;80.20;;;;;;5094486;28;20035;-35
2022/03/16 03:21:26;;;;;;;18.17;13.63;;;6.80;80.40;;;;;;5094696;28;20156;-35
2022/03/16 03:23:52;;;;;;;21.95;14.80;;;6.80;80.40;;;;;;5094370;28;20020;-35
2022/03/16 03:26:18;;;;;;;21.05;14.65;;;6.80;80.40;;;;;;5094397;28;20537;-36
2022/03/16 03:28:43;;;;;;;21.60;14.77;;;6.80;80.40;;;;;;5094134;28;20020;-37
2022/03/16 03:31:09;;;;;;;18.23;13.25;;;6.80;80.30;;;;;;5094122;28;20143;-36
2022/03/16 03:33:34;;;;;;;19.08;13.80;;;6.80;80.30;;;;;;5094030;28;20020;-36
2022/03/16 03:36:00;;;;;;;18.70;14.10;;;6.80;80.30;;;;;;5076026;28;20016;-36
2022/03/16 03:38:25;;;;;;;18.73;12.82;;;6.80;80.40;;;;;;5094018;28;20024;-36
2022/03/16 03:40:51;;;;;;;22.17;14.98;;;6.80;80.40;;;;;;5094093;28;20476;-36
2022/03/16 03:43:16;;;;;;;21.27;13.93;;;6.80;80.40;;;;;;5094060;28;20383;-36
2022/03/16 03:45:42;;;;;;;17.40;13.55;;;6.90;80.40;;;;;;5094023;28;20016;-36
2022/03/16 03:48:07;;;;;;;19.10;14.43;;;6.80;80.30;;;;;;5094043;28;20037;-36
2022/03/16 03:50:34;;;;;;;21.25;14.40;;;6.80;80.30;;;;;;5093748;28;20031;-36
2022/03/16 03:52:59;;;;;;;19.95;13.48;;;6.80;80.40;;;;;;5093877;28;20016;-36
2022/03/16 03:55:25;;;;;;;22.73;14.77;;;6.80;80.40;;;;;;5093614;28;20044;-36
2022/03/16 03:57:50;;;;;;;19.83;14.10;;;6.90;80.40;;;;;;5093941;28;20467;-35
2022/03/16 04:00:16;;;;;;;19.25;14.35;;;6.80;80.30;;;;;;5093759;28;20012;-36
2022/03/16 04:02:51;;;;;;;19.73;14.52;;;6.80;80.30;;;;;;5093647;28;20028;-36
2022/03/16 04:05:18;;;;;;;20.15;14.55;;;6.80;80.40;;;;;;5093657;28;20050;-36
2022/03/16 04:07:43;;;;;;;17.50;13.27;;;6.80;80.40;;;;;;5092883;28;20093;-35
2022/03/16 04:10:10;;;;;;;20.05;14.43;;;6.80;80.40;;;;;;5093412;28;20464;-36
2022/03/16 04:12:37;;;;;;;18.95;13.85;;;6.80;80.40;;;;;;5093652;28;20551;-35
2022/03/16 04:15:03;;;;;;;19.60;13.73;;;6.80;80.50;;;;;;5093419;28;20468;-36
2022/03/16 04:17:29;;;;;;;19.83;13.73;;;6.70;80.60;;;;;;5093295;28;20081;-35
2022/03/16 04:19:54;;;;;;;20.67;13.82;;;6.70;80.50;;;;;;5093039;28;20028;-35
2022/03/16 04:22:20;;;;;;;18.92;13.98;;;6.70;80.60;;;;;;5093355;28;20024;-35
2022/03/16 04:24:46;;;;;;;20.38;13.98;;;6.70;80.60;;;;;;5093357;28;20028;-35
2022/03/16 04:27:11;;;;;;;17.83;13.75;;;6.70;80.60;;;;;;5093247;28;20039;-36
2022/03/16 04:29:37;;;;;;;20.70;14.00;;;6.70;80.70;;;;;;5075094;28;20035;-35
2022/03/16 04:32:03;;;;;;;18.63;13.63;;;6.70;80.80;;;;;;5093242;28;20126;-37
2022/03/16 04:34:29;;;;;;;21.60;14.50;;;6.60;80.70;;;;;;5092897;28;20020;-36
2022/03/16 04:36:54;;;;;;;18.92;13.95;;;6.60;80.80;;;;;;5093070;28;20051;-36
2022/03/16 04:39:20;;;;;;;22.45;14.23;;;6.60;80.80;;;;;;5093047;28;20066;-34
2022/03/16 04:41:45;;;;;;;18.20;13.63;;;6.60;80.90;;;;;;5093062;28;20028;-35
2022/03/16 04:44:11;;;;;;;20.00;13.85;;;6.60;80.90;;;;;;5093076;28;20533;-35
2022/03/16 04:46:37;;;;;;;20.25;14.77;;;6.60;80.80;;;;;;5074834;28;20059;-36
2022/03/16 04:49:02;;;;;;;21.38;14.20;;;6.60;80.80;;;;;;5092999;28;20024;-35
2022/03/16 04:51:28;;;;;;;18.70;13.27;;;6.60;80.90;;;;;;5074726;28;20103;-36
2022/03/16 04:53:53;;;;;;;18.05;13.32;;;6.60;80.90;;;;;;5074707;28;20024;-35
2022/03/16 04:56:19;;;;;;;17.92;12.52;;;6.60;80.90;;;;;;5092638;28;20058;-35
2022/03/16 04:58:45;;;;;;;19.63;12.80;;;6.60;80.90;;;;;;5092896;28;20016;-36
2022/03/16 05:01:10;;;;;;;19.33;13.38;;;6.50;80.90;;;;;;5092894;28;20067;-35
2022/03/16 05:03:36;;;;;;;19.00;12.80;;;6.60;80.90;;;;;;5074649;28;20024;-35
2022/03/16 05:06:01;;;;;;;15.88;11.77;;;6.50;81.00;;;;;;5092875;28;20028;-35
2022/03/16 05:08:27;;;;;;;17.23;12.82;;;6.50;81.00;;;;;;5093034;28;20023;-35
2022/03/16 05:10:53;;;;;;;16.17;11.50;;;6.50;81.00;;;;;;5092760;28;20069;-36
2022/03/16 05:13:18;;;;;;;15.93;11.82;;;6.50;81.10;;;;;;5092750;28;20034;-37
2022/03/16 05:15:44;;;;;;;17.77;12.48;;;6.40;81.00;;;;;;5093045;28;20055;-39
2022/03/16 05:18:09;;;;;;;17.58;11.93;;;6.40;81.00;;;;;;5093032;28;20536;-38
2022/03/16 05:20:35;;;;;;;15.70;11.55;;;6.40;81.00;;;;;;5074444;28;20089;-37
2022/03/16 05:23:00;;;;;;;16.65;11.90;;;6.40;81.10;;;;;;5092482;28;20031;-37
2022/03/16 05:25:30;;;;;;;17.40;12.25;;;6.40;81.10;;;;;;5092514;28;20113;-36
2022/03/16 05:27:56;;;;;;;16.55;12.00;;;6.30;81.10;;;;;;5092535;28;20111;-36
2022/03/16 05:30:23;;;;;;;18.02;13.10;;;6.30;81.20;;;;;;5092326;28;20059;-36
2022/03/16 05:32:53;;;;;;;15.27;11.55;;;6.30;81.20;;;;;;5096668;28;20443;-36
2022/03/16 05:35:18;;;;;;;16.15;11.77;;;6.30;81.90;;;;;;5078377;28;20020;-38
2022/03/16 05:37:44;;;;;;;15.23;11.95;;;6.30;81.30;;;;;;5096737;28;20490;-35
2022/03/16 05:40:10;;;;;;;18.25;12.38;;;6.30;81.30;;;;;;5096334;28;20023;-36
2022/03/16 05:42:36;;;;;;;19.58;12.48;;;6.30;81.30;;;;;;5096208;28;20496;-36
2022/03/16 05:45:03;;;;;;;17.40;12.15;;;6.20;81.30;;;;;;5096290;28;20066;-36
2022/03/16 05:47:29;;;;;;;18.88;12.68;;;6.20;81.30;;;;;;5096266;28;20444;-37
2022/03/16 05:49:55;;;;;;;19.15;12.82;;;6.20;81.40;;;;;;5095974;28;20095;-37
2022/03/16 05:52:22;;;;;;;17.83;13.23;;;6.20;81.40;;;;;;5096324;28;20365;-37
2022/03/16 05:54:52;;;;;;;18.70;13.63;;;6.20;81.40;;;;;;5096388;28;20027;-37
2022/03/16 05:57:19;;;;;;;17.80;12.55;;;6.10;81.40;;;;;;5096144;28;20040;-35
2022/03/16 05:59:45;;;;;;;15.82;11.77;;;6.10;81.50;;;;;;5096145;28;20016;-36
2022/03/16 06:02:11;;;;;;;17.02;12.35;;;6.10;81.50;;;;;;5077905;28;20020;-36
2022/03/16 06:04:38;;;;;;;18.98;13.35;;;6.10;81.50;;;;;;5096097;28;20074;-37
2022/03/16 06:07:05;;;;;;;18.52;13.75;;;6.10;81.60;;;;;;5096027;28;20073;-37
2022/03/16 06:09:30;;;;;;;16.98;12.85;;;6.10;81.60;;;;;;5095936;28;20032;-36
2022/03/16 06:11:57;;;;;;;18.73;13.93;;;6.20;81.70;;;;;;5095675;28;20020;-35
2022/03/16 06:14:22;;;;;;;20.67;13.63;;;6.20;81.70;;;;;;5095762;28;20044;-34
2022/03/16 06:16:48;;;;;;;18.23;12.90;;;6.20;81.70;;;;;;5077565;28;20051;-35
2022/03/16 06:19:13;;;;;;;18.98;13.98;;;6.20;82.30;;;;;;5095623;28;20013;-34
2022/03/16 06:21:39;;;;;;;18.02;13.60;;;6.20;81.60;;;;;;5095602;28;20032;-36
2022/03/16 06:24:05;;;;;;;19.83;13.27;;;6.20;81.60;;;;;;5095542;28;20028;-35
2022/03/16 06:26:31;;;;;;;18.27;13.30;;;6.30;81.70;;;;;;5095513;28;20452;-36
2022/03/16 06:28:57;;;;;;;18.00;13.65;;;6.30;81.70;;;;;;5095529;28;20038;-35
2022/03/16 06:31:22;;;;;;;19.17;13.65;;;6.30;81.70;;;;;;5095202;28;20468;-36
2022/03/16 06:33:48;;;;;;;18.73;14.15;;;6.30;81.70;;;;;;5077359;28;20063;-34
2022/03/16 06:36:14;;;;;;;21.65;14.27;;;6.30;81.70;;;;;;5095638;28;20070;-36
2022/03/16 06:38:39;;;;;;;21.33;14.30;;;6.30;81.70;;;;;;5095186;28;20017;-36
2022/03/16 06:41:05;;;;;;;20.40;14.68;;;6.30;81.80;;;;;;5095282;28;20464;-35
2022/03/16 06:43:31;;;;;;;16.75;13.02;;;6.30;81.80;;;;;;5076531;28;20460;-35
2022/03/16 06:45:56;;;;;;;19.20;14.00;;;6.40;81.80;;;;;;5076903;28;20460;-36
2022/03/16 06:48:23;;;;;;;20.63;14.45;;;6.40;81.80;;;;;;5095225;28;20072;-35
2022/03/16 06:50:50;;;;;;;19.15;14.13;;;6.40;81.70;;;;;;5095161;28;20516;-35
2022/03/16 06:53:16;;;;;;;19.70;13.57;;;6.50;81.70;;;;;;5094962;28;20021;-36
2022/03/16 06:55:41;;;;;;;19.92;14.48;;;6.50;81.70;;;;;;5076572;28;20183;-36
2022/03/16 06:58:07;;;;;;;20.58;14.68;;;6.60;81.70;;;;;;5094833;28;20430;-35
2022/03/16 07:00:32;;;;;;;21.70;13.52;;;6.60;81.60;;;;;;5094774;28;20053;-35
2022/03/16 07:03:05;;;;;;;21.67;12.93;;;6.60;81.60;;;;;;5094816;28;20074;-35
2022/03/16 07:05:35;;;;;;;20.80;13.40;;;6.60;81.50;;;;;;5095022;28;20020;-35
2022/03/16 07:08:06;;;;;;;21.63;14.05;;;6.70;81.50;;;;;;5094800;28;20099;-36
2022/03/16 07:10:33;;;;;;;18.67;13.20;;;6.80;81.50;;;;;;5094506;28;20116;-35
2022/03/16 07:13:00;;;;;;;18.63;13.13;;;6.80;81.30;;;;;;5094640;28;20066;-35
2022/03/16 07:15:27;;;;;;;20.50;13.63;;;6.90;81.40;;;;;;5094619;28;20102;-36
2022/03/16 07:17:52;;;;;;;19.73;13.40;;;6.90;81.20;;;;;;5076544;28;20027;-37
2022/03/16 07:20:18;;;;;;;17.27;12.32;;;7.00;81.20;;;;;;5094616;28;20020;-36
2022/03/16 07:22:44;;;;;;;15.80;12.20;;;7.00;81.10;;;;;;5094493;28;20074;-36
2022/03/16 07:25:10;;;;;;;17.70;13.38;;;7.00;81.10;;;;;;5094697;28;20560;-37
2022/03/16 07:27:40;;;;;;;19.90;12.98;;;7.10;81.10;;;;;;5094261;28;20035;-35
2022/03/16 07:30:07;;;;;;;17.10;12.73;;;7.10;80.90;;;;;;5094307;28;20024;-37
2022/03/16 07:32:35;;;;;;;17.95;11.45;;;7.20;80.90;;;;;;5094216;28;20036;-35
2022/03/16 07:35:01;;;;;;;17.08;12.18;;;7.30;80.90;;;;;;5094463;28;20009;-35
2022/03/16 07:37:26;;;;;;;16.05;12.10;;;7.30;80.80;;;;;;5094040;28;20024;-35
2022/03/16 07:39:52;;;;;;;16.35;12.40;;;7.40;80.70;;;;;;5094123;28;20012;-35
2022/03/16 07:42:17;;;;;;;17.60;12.55;;;7.50;80.80;;;;;;5094127;28;20165;-36
2022/03/16 07:44:43;;;;;;;16.40;11.85;;;7.50;80.70;;;;;;5075851;28;20515;-35
2022/03/16 07:47:09;;;;;;;15.90;12.82;;;7.50;80.60;;;;;;5094081;28;20105;-36
2022/03/16 07:49:35;;;;;;;15.95;11.45;;;7.60;80.50;;;;;;5093847;28;20073;-37
2022/03/16 07:52:01;;;;;;;18.00;12.57;;;7.60;80.50;;;;;;5093927;28;20020;-36
2022/03/16 07:54:27;;;;;;;19.23;12.45;;;7.70;80.30;;;;;;5074890;28;20384;-36
2022/03/16 07:56:53;;;;;;;18.05;11.05;;;7.70;80.30;;;;;;5093862;28;20070;-35
2022/03/16 07:59:19;;;;;;;15.45;11.20;;;7.80;80.70;;;;;;5093926;28;20051;-37
2022/03/16 08:01:45;;;;;;;15.93;11.00;;;7.90;80.80;;;;;;5093732;28;20110;-36
2022/03/16 08:04:11;;;;;;;15.15;10.48;;;7.90;81.00;;;;;;5093970;28;20049;-36
2022/03/16 08:06:37;;;;;;;14.25;10.57;;;7.90;80.80;;;;;;5093966;28;20024;-36
2022/03/16 08:09:02;;;;;;;17.85;11.30;;;8.00;80.90;;;;;;5093802;28;20023;-37
2022/03/16 08:11:28;;;;;;;18.67;12.38;;;8.10;80.70;;;;;;5093604;28;20028;-36
2022/03/16 08:13:53;;;;;;;16.90;11.48;;;8.10;80.50;;;;;;5093712;28;20070;-36
2022/03/16 08:16:19;;;;;;;16.08;10.75;;;8.20;80.30;;;;;;5093556;28;20021;-36
2022/03/16 08:18:44;;;;;;;16.80;11.10;;;8.30;80.40;;;;;;5093628;28;20028;-36
2022/03/16 08:21:11;;;;;;;16.42;11.18;;;8.40;80.30;;;;;;5093513;28;20388;-36
2022/03/16 08:23:38;;;;;;;15.57;11.05;;;8.50;80.10;;;;;;5093552;28;20020;-36
2022/03/16 08:26:03;;;;;;;16.98;11.00;;;8.50;80.00;;;;;;5093420;28;20472;-36
2022/03/16 08:28:29;;;;;;;13.55;9.88;;;8.60;79.80;;;;;;5093421;28;20031;-36
2022/03/16 08:30:55;;;;;;;16.27;10.45;;;8.70;79.80;;;;;;5093286;28;20024;-36
2022/03/16 08:33:22;;;;;;;14.13;9.68;;;8.80;79.70;;;;;;5074967;28;20129;-45
2022/03/16 08:35:47;;;;;;;14.40;8.90;;;8.90;79.80;;;;;;5093441;28;20016;-36
2022/03/16 08:38:13;;;;;;;12.00;7.85;;;9.10;80.20;;;;;;5093268;28;20047;-36
2022/03/16 08:40:38;;;;;;;10.60;7.32;;;9.20;80.40;;;;;;5093031;28;20127;-37
2022/03/16 08:43:04;;;;;;;8.73;5.53;;;9.30;80.40;;;;;;5093415;28;20031;-36
2022/03/16 08:45:31;;;;;;;9.43;6.85;;;9.40;80.80;;;;;;5093199;28;20476;-36
2022/03/16 08:47:57;;;;;;;9.35;7.22;;;9.50;80.80;;;;;;5093324;28;20484;-36
2022/03/16 08:50:22;;;;;;;9.35;7.05;;;9.60;81.10;;;;;;5092824;28;20046;-34
2022/03/16 08:52:48;;;;;;;12.40;8.48;;;9.70;80.90;;;;;;5093006;28;20024;-36
2022/03/16 08:55:15;;;;;;;13.80;9.05;;;9.80;79.80;;;;;;5093149;28;20047;-35
2022/03/16 08:57:43;;;;;;;11.85;7.97;;;9.90;79.30;;;;;;5093080;28;20058;-36
2022/03/16 09:00:14;;;;;;;11.85;8.02;;;10.00;78.40;;;;;;5092964;28;20026;-37
2022/03/16 09:02:40;;;;;;;12.52;8.82;;;10.00;78.00;;;;;;5092935;28;20033;-36
2022/03/16 09:05:07;;;;;;;13.23;7.78;;;10.10;77.70;;;;;;5076109;28;20020;-36
2022/03/16 09:07:32;;;;;;;11.10;7.88;;;10.20;77.40;;;;;;5097247;28;20024;-37
2022/03/16 09:09:58;;;;;;;12.68;8.68;;;10.30;76.80;;;;;;5078925;28;20020;-36
2022/03/16 09:12:24;;;;;;;11.65;8.50;;;10.40;76.50;;;;;;5097062;28;20427;-35
2022/03/16 09:14:49;;;;;;;11.70;8.43;;;10.40;75.70;;;;;;5097167;28;20460;-36
2022/03/16 09:17:17;;;;;;;12.32;7.50;;;10.50;75.60;;;;;;5097034;28;20039;-36
2022/03/16 09:19:43;;;;;;;12.40;8.00;;;10.60;75.40;;;;;;5097164;28;20028;-35
2022/03/16 09:22:09;;;;;;;10.18;8.00;;;10.60;74.80;;;;;;5096929;28;20027;-35
2022/03/16 09:24:39;;;;;;;12.77;8.18;;;10.70;74.10;;;;;;5096839;28;20019;-35
2022/03/16 09:27:06;;;;;;;10.15;7.90;;;10.70;74.00;;;;;;5078739;28;20491;-35
2022/03/16 09:29:31;;;;;;;9.65;7.43;;;10.80;74.00;;;;;;5096831;28;20020;-36
2022/03/16 09:31:57;;;;;;;10.90;7.53;;;10.80;73.80;;;;;;5096830;28;20023;-35
2022/03/16 09:34:24;;;;;;;11.15;7.63;;;10.80;72.90;;;;;;5096760;28;20103;-35
2022/03/16 09:36:50;;;;;;;9.68;7.38;;;10.90;73.20;;;;;;5078751;28;20027;-36
2022/03/16 09:39:16;;;;;;;7.70;5.45;;;10.90;72.50;;;;;;5096685;28;20020;-36
2022/03/16 09:41:42;;;;;;;7.88;4.95;;;10.90;73.80;;;;;;5096506;28;20024;-36
2022/03/16 09:44:09;;;;;;;6.63;4.22;;;10.90;76.70;;;;;;5096552;28;20028;-36
2022/03/16 09:46:36;;;;;;;8.05;5.55;;;10.90;77.10;;;;;;5096435;28;20030;-37
2022/03/16 09:49:04;;;;;;;8.07;5.65;;;11.00;78.00;;;;;;5096790;28;20456;-36
2022/03/16 09:51:35;;;;;;;8.35;5.88;;;11.00;77.30;;;;;;5096306;28;20024;-38
2022/03/16 09:54:01;;;;;;;10.02;7.38;;;11.10;76.80;;;;;;5096600;28;20040;-36
2022/03/16 09:56:27;;;;;;;10.23;7.78;;;11.20;75.80;;;;;;5096172;28;20047;-36
2022/03/16 09:58:52;;;;;;;9.85;8.10;;;11.30;74.80;;;;;;5096154;28;20024;-36
2022/03/16 10:01:19;;;;;;;10.80;7.45;;;11.30;74.30;;;;;;5096203;28;20387;-36
2022/03/16 10:03:49;;;;;;;9.35;7.05;;;11.40;73.90;;;;;;5096408;28;20073;-37
2022/03/16 10:06:17;;;;;;;13.15;8.00;;;11.40;73.30;;;;;;5096077;28;20494;-36
2022/03/16 10:13:13;;;;;;;10.45;7.75;;;11.50;72.80;;;;;;5095873;28;20019;-36
2022/03/16 10:14:15;;;;;;;8.18;5.57;;;11.60;72.00;;;;;;5095883;28;20165;-36
2022/03/16 10:20:07;;;;;;;7.40;5.28;;;11.70;74.40;;;;;;4994220;28;20415;-36
2022/03/16 10:22:37;;;;;;;5.93;4.57;;;11.70;74.80;;;;;;4993995;28;20027;-35
2022/03/16 10:25:05;;;;;;;8.70;5.90;;;11.70;74.80;;;;;;5059304;28;20449;-36
2022/03/16 10:27:38;;;;;;;6.90;4.63;;;11.80;74.70;;;;;;5095709;28;20095;-35
2022/03/16 10:30:08;;;;;;;5.88;4.05;;;11.90;74.60;;;;;;5095528;28;20043;-35
2022/03/16 10:32:34;;;;;;;8.70;5.95;;;11.90;75.30;;;;;;5095647;28;20023;-35
2022/03/16 10:35:05;;;;;;;5.82;4.35;;;11.90;75.20;;;;;;5095405;28;20103;-35
2022/03/16 10:37:34;;;;;;;3.97;3.10;;;12.00;74.90;;;;;;5095405;28;20035;-35
2022/03/16 10:40:00;;;;;;;6.50;4.40;;;12.10;75.20;;;;;;5095351;28;20099;-36
2022/03/16 10:48:25;;;;;;;7.53;5.32;;;12.40;74.40;;;;;;5095407;28;20418;-37
2022/03/16 10:51:02;;;;;;;4.13;3.05;;;12.40;74.00;;;;;;5095130;28;20024;-36
2022/03/16 10:53:30;;;;;;;5.85;4.22;;;12.50;74.70;;;;;;5094983;28;20529;-35
2022/03/16 10:55:59;;;;;;;3.33;3.00;;;12.50;74.70;;;;;;5094712;28;20051;-36
2022/03/16 10:58:26;;;;;;;7.45;4.90;;;12.60;74.90;;;;;;5094863;28;20016;-35
2022/03/16 11:00:52;;;;;;;4.80;3.70;;;12.60;74.60;;;;;;5095042;28;20048;-36
2022/03/16 11:03:22;;;;;;;6.22;4.65;;;12.80;74.70;;;;;;5094861;28;20073;-35
2022/03/16 11:05:49;;;;;;;4.93;3.42;;;12.90;74.50;;;;;;5094976;28;20099;-35
2022/03/16 11:08:15;;;;;;;6.30;4.97;;;12.90;74.50;;;;;;5094842;28;20130;-35
2022/03/16 11:10:42;;;;;;;8.57;6.20;;;13.00;74.00;;;;;;5094831;28;20012;-35
2022/03/16 11:15:54;;;;;;;7.88;5.20;;;13.20;73.50;;;;;;5094836;28;20031;-36
2022/03/16 11:18:22;;;;;;;5.38;3.65;;;13.20;72.80;;;;;;5094676;28;20131;-36
2022/03/16 11:20:50;;;;;;;6.25;4.63;;;13.30;74.00;;;;;;5094961;28;20028;-35
2022/03/16 11:26:24;;;;;;;7.38;5.35;;;13.50;72.60;;;;;;5094768;28;20039;-36
2022/03/16 11:29:13;;;;;;;2.47;1.95;;;13.60;72.50;;;;;;5094742;28;20024;-35
2022/03/16 11:31:42;;;;;;;4.60;2.63;;;13.60;73.30;;;;;;5076368;28;20039;-36
2022/03/16 11:34:10;;;;;;;4.22;3.55;;;13.70;72.70;;;;;;5094549;28;20154;-34
2022/03/16 11:36:40;;;;;;;3.65;2.92;;;13.70;71.90;;;;;;5094296;28;20017;-35
2022/03/16 11:39:15;;;;;;;3.20;2.45;;;13.80;71.80;;;;;;5094464;28;20028;-36
2022/03/16 11:41:51;;;;;;;4.85;3.80;;;13.90;72.30;;;;;;5094137;28;20031;-36
2022/03/16 11:44:25;;;;;;;3.58;3.00;;;14.00;71.40;;;;;;5094238;28;20028;-36
2022/03/16 11:47:15;;;;;;;3.05;2.38;;;14.10;71.30;;;;;;5094113;28;20043;-36
2022/03/16 11:49:45;;;;;;;5.03;4.28;;;14.20;71.30;;;;;;5080944;28;20150;-33
2022/03/16 11:52:11;;;;;;;3.08;2.40;;;14.20;70.80;;;;;;5093912;28;20031;-35
2022/03/16 11:54:51;;;;;;;3.38;2.50;;;14.30;71.40;;;;;;5075756;28;20591;-34
2022/03/16 11:57:51;;;;;;;2.83;2.40;;;14.40;70.30;;;;;;5093817;28;20036;-35
2022/03/16 12:00:17;;;;;;;4.80;3.55;;;14.50;70.10;;;;;;5075663;28;20377;-35
2022/03/16 12:02:57;;;;;;;5.82;4.90;;;14.50;69.40;;;;;;5093711;28;20024;-35
2022/03/16 12:05:26;;;;;;;6.18;4.10;;;14.50;68.20;;;;;;5093753;28;20035;-34
2022/03/16 12:08:12;;;;;;;5.03;4.07;;;14.60;68.70;;;;;;5093725;28;20523;-36
2022/03/16 12:12:50;;;;;;;5.05;4.00;;;14.70;68.20;;;;;;5093523;28;20024;-36
2022/03/16 12:13:33;;;;;;;5.00;3.95;;;14.80;67.80;;;;;;5093377;28;20032;-35
2022/03/16 12:16:05;;;;;;;3.05;2.50;;;14.90;68.00;;;;;;5093514;28;20036;-35
2022/03/16 12:18:31;;;;;;;5.03;3.75;;;15.00;68.20;;;;;;5092967;28;20039;-35
2022/03/16 12:21:03;;;;;;;3.67;2.97;;;15.00;68.20;;;;;;5075245;28;20024;-36
2022/03/16 12:23:52;;;;;;;4.40;3.80;;;15.10;67.60;;;;;;5093449;28;20028;-36
2022/03/16 12:26:24;;;;;;;5.40;3.38;;;15.20;67.40;;;;;;5093715;28;20024;-35
2022/03/16 12:28:56;;;;;;;2.55;2.35;;;15.30;67.30;;;;;;5093321;28;20067;-36
2022/03/16 12:31:22;;;;;;;2.33;2.13;;;15.30;67.40;;;;;;5093416;28;20028;-35
2022/03/16 12:33:53;;;;;;;4.55;4.10;;;15.40;67.40;;;;;;5093209;28;20043;-36
2022/03/16 12:36:22;;;;;;;2.72;2.38;;;15.50;66.80;;;;;;5093102;28;20455;-36
2022/03/16 12:38:50;;;;;;;3.50;2.45;;;15.50;66.80;;;;;;5093066;28;20070;-35
2022/03/16 12:44:09;;;;;;;4.90;3.60;;;15.60;66.00;;;;;;5093510;28;20127;-35
2022/03/16 12:46:43;;;;;;;5.05;3.55;;;15.70;65.70;;;;;;5093113;28;20028;-36
2022/03/16 12:49:14;;;;;;;3.50;2.72;;;15.80;65.20;;;;;;5092990;28;20055;-36
2022/03/16 12:51:46;;;;;;;3.97;2.92;;;15.90;65.40;;;;;;5092888;28;20028;-36
2022/03/16 12:54:22;;;;;;;6.47;5.18;;;15.90;65.40;;;;;;5093241;28;20510;-35
2022/03/16 12:56:50;;;;;;;6.40;4.88;;;15.90;64.60;;;;;;5092806;28;20127;-36
2022/03/16 12:59:29;;;;;;;5.53;3.85;;;15.90;63.90;;;;;;5074609;28;20024;-35
2022/03/16 13:01:56;;;;;;;6.25;4.05;;;15.80;63.80;;;;;;5092959;28;20086;-37